sensor_id;sensor_type;location;lat;lon;timestamp;temperature;humidity
34837;DHT22;21053;50.848;4.652;2023-05-07T00:02:16;15.20;99.90
34837;DHT22;21053;50.848;4.652;2023-05-07T00:04:45;15.20;99.90
34837;DHT22;21053;50.848;4.652;2023-05-07T00:07:13;15.20;99.90
34837;DHT22;21053;50.848;4.652;2023-05-07T00:09:41;15.30;99.90
34837;DHT22;21053;50.848;4.652;2023-05-07T00:12:09;15.20;99.90
34837;DHT22;21053;50.848;4.652;2023-05-07T00:14:36;15.00;99.90
34837;DHT22;21053;50.848;4.652;2023-05-07T00:17:02;14.90;99.90
34837;DHT22;21053;50.848;4.652;2023-05-07T00:19:28;15.00;99.90
34837;DHT22;21053;50.848;4.652;2023-05-07T00:21:55;15.10;99.90
34837;DHT22;21053;50.848;4.652;2023-05-07T00:24:23;15.10;99.90
34837;DHT22;21053;50.848;4.652;2023-05-07T00:26:50;14.90;99.90
34837;DHT22;21053;50.848;4.652;2023-05-07T00:29:18;14.90;99.90
34837;DHT22;21053;50.848;4.652;2023-05-07T00:31:46;14.90;99.90
34837;DHT22;21053;50.848;4.652;2023-05-07T00:34:14;15.00;99.90
34837;DHT22;21053;50.848;4.652;2023-05-07T00:36:39;15.00;99.90
34837;DHT22;21053;50.848;4.652;2023-05-07T00:39:07;15.00;99.90
34837;DHT22;21053;50.848;4.652;2023-05-07T00:41:36;15.20;99.90
34837;DHT22;21053;50.848;4.652;2023-05-07T00:44:03;15.30;99.90
34837;DHT22;21053;50.848;4.652;2023-05-07T00:46:30;15.40;99.90
34837;DHT22;21053;50.848;4.652;2023-05-07T00:48:58;15.40;99.90
34837;DHT22;21053;50.848;4.652;2023-05-07T00:51:30;15.20;99.90
34837;DHT22;21053;50.848;4.652;2023-05-07T00:54:01;15.00;99.90
34837;DHT22;21053;50.848;4.652;2023-05-07T00:56:28;15.10;99.90
34837;DHT22;21053;50.848;4.652;2023-05-07T00:58:55;15.20;99.90
34837;DHT22;21053;50.848;4.652;2023-05-07T01:01:22;15.30;99.90
34837;DHT22;21053;50.848;4.652;2023-05-07T01:03:49;15.40;99.90
34837;DHT22;21053;50.848;4.652;2023-05-07T01:06:15;15.30;99.90
34837;DHT22;21053;50.848;4.652;2023-05-07T01:08:45;15.30;99.90
34837;DHT22;21053;50.848;4.652;2023-05-07T01:11:11;15.30;99.90
34837;DHT22;21053;50.848;4.652;2023-05-07T01:13:41;15.40;99.90
34837;DHT22;21053;50.848;4.652;2023-05-07T01:16:09;15.50;99.90
34837;DHT22;21053;50.848;4.652;2023-05-07T01:18:35;15.40;99.90
34837;DHT22;21053;50.848;4.652;2023-05-07T01:21:04;15.40;99.90
34837;DHT22;21053;50.848;4.652;2023-05-07T01:23:33;15.40;99.90
34837;DHT22;21053;50.848;4.652;2023-05-07T01:26:02;15.10;99.90
34837;DHT22;21053;50.848;4.652;2023-05-07T01:28:28;15.00;99.90
34837;DHT22;21053;50.848;4.652;2023-05-07T01:30:57;15.00;99.90
34837;DHT22;21053;50.848;4.652;2023-05-07T01:33:28;15.20;99.90
34837;DHT22;21053;50.848;4.652;2023-05-07T01:35:55;15.30;99.90
34837;DHT22;21053;50.848;4.652;2023-05-07T01:38:24;15.40;99.90
34837;DHT22;21053;50.848;4.652;2023-05-07T01:40:52;15.20;99.90
34837;DHT22;21053;50.848;4.652;2023-05-07T01:43:19;15.20;99.90
34837;DHT22;21053;50.848;4.652;2023-05-07T01:45:46;15.20;99.90
34837;DHT22;21053;50.848;4.652;2023-05-07T01:48:14;15.20;99.90
34837;DHT22;21053;50.848;4.652;2023-05-07T01:50:44;15.30;99.90
34837;DHT22;21053;50.848;4.652;2023-05-07T01:53:11;15.30;99.90
34837;DHT22;21053;50.848;4.652;2023-05-07T01:55:39;15.20;99.90
34837;DHT22;21053;50.848;4.652;2023-05-07T01:58:06;15.10;99.90
34837;DHT22;21053;50.848;4.652;2023-05-07T02:00:35;15.10;99.90
34837;DHT22;21053;50.848;4.652;2023-05-07T02:03:02;15.20;99.90
34837;DHT22;21053;50.848;4.652;2023-05-07T02:05:28;15.30;99.90
34837;DHT22;21053;50.848;4.652;2023-05-07T02:07:54;15.40;99.90
34837;DHT22;21053;50.848;4.652;2023-05-07T02:10:22;15.30;99.90
34837;DHT22;21053;50.848;4.652;2023-05-07T02:12:51;15.00;99.90
34837;DHT22;21053;50.848;4.652;2023-05-07T02:15:18;14.80;99.90
34837;DHT22;21053;50.848;4.652;2023-05-07T02:18:05;14.60;99.90
34837;DHT22;21053;50.848;4.652;2023-05-07T02:20:32;14.50;99.90
34837;DHT22;21053;50.848;4.652;2023-05-07T02:22:58;14.60;99.90
34837;DHT22;21053;50.848;4.652;2023-05-07T02:25:23;14.80;99.90
34837;DHT22;21053;50.848;4.652;2023-05-07T02:27:49;14.90;99.90
34837;DHT22;21053;50.848;4.652;2023-05-07T02:30:15;15.10;99.90
34837;DHT22;21053;50.848;4.652;2023-05-07T02:32:41;15.20;99.90
34837;DHT22;21053;50.848;4.652;2023-05-07T02:35:07;15.30;99.90
34837;DHT22;21053;50.848;4.652;2023-05-07T02:37:35;15.40;99.90
34837;DHT22;21053;50.848;4.652;2023-05-07T02:40:03;15.30;99.90
34837;DHT22;21053;50.848;4.652;2023-05-07T02:42:30;15.30;99.90
34837;DHT22;21053;50.848;4.652;2023-05-07T02:44:59;15.20;99.90
34837;DHT22;21053;50.848;4.652;2023-05-07T02:47:26;15.20;99.90
34837;DHT22;21053;50.848;4.652;2023-05-07T02:49:54;15.10;99.90
34837;DHT22;21053;50.848;4.652;2023-05-07T02:52:21;15.00;99.90
34837;DHT22;21053;50.848;4.652;2023-05-07T02:54:48;15.00;99.90
34837;DHT22;21053;50.848;4.652;2023-05-07T02:57:14;15.10;99.90
34837;DHT22;21053;50.848;4.652;2023-05-07T02:59:41;15.20;99.90
34837;DHT22;21053;50.848;4.652;2023-05-07T03:02:08;15.10;99.90
34837;DHT22;21053;50.848;4.652;2023-05-07T03:04:35;15.10;99.90
34837;DHT22;21053;50.848;4.652;2023-05-07T03:07:06;15.10;99.90
34837;DHT22;21053;50.848;4.652;2023-05-07T03:09:34;15.00;99.90
34837;DHT22;21053;50.848;4.652;2023-05-07T03:12:01;14.80;99.90
34837;DHT22;21053;50.848;4.652;2023-05-07T03:14:28;14.80;99.90
34837;DHT22;21053;50.848;4.652;2023-05-07T03:16:54;14.60;99.90
34837;DHT22;21053;50.848;4.652;2023-05-07T03:19:21;14.60;99.90
34837;DHT22;21053;50.848;4.652;2023-05-07T03:21:47;14.80;99.90
34837;DHT22;21053;50.848;4.652;2023-05-07T03:24:14;14.80;99.90
34837;DHT22;21053;50.848;4.652;2023-05-07T03:26:40;14.80;99.90
34837;DHT22;21053;50.848;4.652;2023-05-07T03:29:09;14.70;99.90
34837;DHT22;21053;50.848;4.652;2023-05-07T03:31:37;14.50;99.90
34837;DHT22;21053;50.848;4.652;2023-05-07T03:34:05;14.50;99.90
34837;DHT22;21053;50.848;4.652;2023-05-07T03:36:30;14.40;99.90
34837;DHT22;21053;50.848;4.652;2023-05-07T03:38:58;14.60;99.90
34837;DHT22;21053;50.848;4.652;2023-05-07T03:41:25;14.80;99.90
34837;DHT22;21053;50.848;4.652;2023-05-07T03:43:54;14.80;99.90
34837;DHT22;21053;50.848;4.652;2023-05-07T03:46:21;14.80;99.90
34837;DHT22;21053;50.848;4.652;2023-05-07T03:48:47;14.70;99.90
34837;DHT22;21053;50.848;4.652;2023-05-07T03:51:16;14.80;99.90
34837;DHT22;21053;50.848;4.652;2023-05-07T03:53:43;14.80;99.90
34837;DHT22;21053;50.848;4.652;2023-05-07T03:56:12;14.80;99.90
34837;DHT22;21053;50.848;4.652;2023-05-07T03:58:41;14.70;99.90
34837;DHT22;21053;50.848;4.652;2023-05-07T04:01:09;14.50;99.90
34837;DHT22;21053;50.848;4.652;2023-05-07T04:03:35;14.70;99.90
34837;DHT22;21053;50.848;4.652;2023-05-07T04:06:04;14.90;99.90
34837;DHT22;21053;50.848;4.652;2023-05-07T04:08:33;14.70;99.90
34837;DHT22;21053;50.848;4.652;2023-05-07T04:11:00;14.70;99.90
34837;DHT22;21053;50.848;4.652;2023-05-07T04:13:28;14.60;99.90
34837;DHT22;21053;50.848;4.652;2023-05-07T04:15:56;14.80;99.90
34837;DHT22;21053;50.848;4.652;2023-05-07T04:18:25;14.90;99.90
34837;DHT22;21053;50.848;4.652;2023-05-07T04:20:51;14.80;99.90
34837;DHT22;21053;50.848;4.652;2023-05-07T04:23:18;14.70;99.90
34837;DHT22;21053;50.848;4.652;2023-05-07T04:25:44;14.50;99.90
34837;DHT22;21053;50.848;4.652;2023-05-07T04:28:12;14.50;99.90
34837;DHT22;21053;50.848;4.652;2023-05-07T04:30:39;14.60;99.90
34837;DHT22;21053;50.848;4.652;2023-05-07T04:33:06;14.80;99.90
34837;DHT22;21053;50.848;4.652;2023-05-07T04:35:33;14.80;99.90
34837;DHT22;21053;50.848;4.652;2023-05-07T04:38:00;14.60;99.90
34837;DHT22;21053;50.848;4.652;2023-05-07T04:40:25;14.50;99.90
34837;DHT22;21053;50.848;4.652;2023-05-07T04:42:54;14.50;99.90
34837;DHT22;21053;50.848;4.652;2023-05-07T04:45:24;14.80;99.90
34837;DHT22;21053;50.848;4.652;2023-05-07T04:47:51;14.80;99.90
34837;DHT22;21053;50.848;4.652;2023-05-07T04:50:17;14.70;99.90
34837;DHT22;21053;50.848;4.652;2023-05-07T04:52:45;14.80;99.90
34837;DHT22;21053;50.848;4.652;2023-05-07T04:55:10;15.00;99.90
34837;DHT22;21053;50.848;4.652;2023-05-07T04:57:36;15.00;99.90
34837;DHT22;21053;50.848;4.652;2023-05-07T05:00:05;15.00;99.90
34837;DHT22;21053;50.848;4.652;2023-05-07T05:02:34;15.20;99.90
34837;DHT22;21053;50.848;4.652;2023-05-07T05:05:00;15.30;99.90
34837;DHT22;21053;50.848;4.652;2023-05-07T05:07:31;15.40;99.90
34837;DHT22;21053;50.848;4.652;2023-05-07T05:09:56;15.40;99.90
34837;DHT22;21053;50.848;4.652;2023-05-07T05:12:26;15.30;99.90
34837;DHT22;21053;50.848;4.652;2023-05-07T05:14:52;15.20;99.90
34837;DHT22;21053;50.848;4.652;2023-05-07T05:17:19;15.20;99.90
34837;DHT22;21053;50.848;4.652;2023-05-07T05:19:45;15.40;99.90
34837;DHT22;21053;50.848;4.652;2023-05-07T05:22:12;15.50;99.90
34837;DHT22;21053;50.848;4.652;2023-05-07T05:24:40;15.60;99.90
34837;DHT22;21053;50.848;4.652;2023-05-07T05:27:06;15.80;99.90
34837;DHT22;21053;50.848;4.652;2023-05-07T05:29:35;15.80;99.90
34837;DHT22;21053;50.848;4.652;2023-05-07T05:32:02;15.90;99.90
34837;DHT22;21053;50.848;4.652;2023-05-07T05:34:27;15.80;99.90
34837;DHT22;21053;50.848;4.652;2023-05-07T05:36:54;15.80;99.90
34837;DHT22;21053;50.848;4.652;2023-05-07T05:39:21;15.90;99.90
34837;DHT22;21053;50.848;4.652;2023-05-07T05:41:50;15.90;99.90
34837;DHT22;21053;50.848;4.652;2023-05-07T05:44:17;15.90;99.90
34837;DHT22;21053;50.848;4.652;2023-05-07T05:46:45;16.00;99.90
34837;DHT22;21053;50.848;4.652;2023-05-07T05:49:12;16.10;99.90
34837;DHT22;21053;50.848;4.652;2023-05-07T05:51:38;16.10;99.90
34837;DHT22;21053;50.848;4.652;2023-05-07T05:54:05;16.20;99.90
34837;DHT22;21053;50.848;4.652;2023-05-07T05:56:30;16.30;99.90
34837;DHT22;21053;50.848;4.652;2023-05-07T05:58:57;16.30;99.90
34837;DHT22;21053;50.848;4.652;2023-05-07T06:01:24;16.30;99.90
34837;DHT22;21053;50.848;4.652;2023-05-07T06:03:51;16.40;99.90
34837;DHT22;21053;50.848;4.652;2023-05-07T06:06:20;16.40;99.90
34837;DHT22;21053;50.848;4.652;2023-05-07T06:08:47;16.40;99.90
34837;DHT22;21053;50.848;4.652;2023-05-07T06:11:13;16.30;99.90
34837;DHT22;21053;50.848;4.652;2023-05-07T06:13:41;16.10;99.90
34837;DHT22;21053;50.848;4.652;2023-05-07T06:16:06;16.30;99.90
34837;DHT22;21053;50.848;4.652;2023-05-07T06:18:33;16.30;99.90
34837;DHT22;21053;50.848;4.652;2023-05-07T06:21:01;16.50;99.90
34837;DHT22;21053;50.848;4.652;2023-05-07T06:23:29;16.70;99.90
34837;DHT22;21053;50.848;4.652;2023-05-07T06:25:58;16.70;99.90
34837;DHT22;21053;50.848;4.652;2023-05-07T06:28:24;16.90;99.90
34837;DHT22;21053;50.848;4.652;2023-05-07T06:30:50;16.90;99.90
34837;DHT22;21053;50.848;4.652;2023-05-07T06:33:17;16.90;99.90
34837;DHT22;21053;50.848;4.652;2023-05-07T06:35:46;16.90;99.90
34837;DHT22;21053;50.848;4.652;2023-05-07T06:38:11;16.90;99.90
34837;DHT22;21053;50.848;4.652;2023-05-07T06:40:39;16.90;99.90
34837;DHT22;21053;50.848;4.652;2023-05-07T06:43:07;17.00;99.90
34837;DHT22;21053;50.848;4.652;2023-05-07T06:45:34;17.00;99.90
34837;DHT22;21053;50.848;4.652;2023-05-07T06:48:01;17.20;99.90
34837;DHT22;21053;50.848;4.652;2023-05-07T06:50:28;17.20;99.90
34837;DHT22;21053;50.848;4.652;2023-05-07T06:52:54;17.20;99.90
34837;DHT22;21053;50.848;4.652;2023-05-07T06:55:20;17.30;99.90
34837;DHT22;21053;50.848;4.652;2023-05-07T06:57:46;17.30;99.90
34837;DHT22;21053;50.848;4.652;2023-05-07T07:00:13;17.50;99.90
34837;DHT22;21053;50.848;4.652;2023-05-07T07:02:40;17.50;99.90
34837;DHT22;21053;50.848;4.652;2023-05-07T07:05:06;17.70;99.90
34837;DHT22;21053;50.848;4.652;2023-05-07T07:07:33;17.80;99.90
34837;DHT22;21053;50.848;4.652;2023-05-07T07:09:58;17.90;99.90
34837;DHT22;21053;50.848;4.652;2023-05-07T07:12:24;18.10;99.90
34837;DHT22;21053;50.848;4.652;2023-05-07T07:14:53;18.20;99.90
34837;DHT22;21053;50.848;4.652;2023-05-07T07:17:19;18.30;99.90
34837;DHT22;21053;50.848;4.652;2023-05-07T07:19:46;18.60;99.90
34837;DHT22;21053;50.848;4.652;2023-05-07T07:22:11;18.60;99.90
34837;DHT22;21053;50.848;4.652;2023-05-07T07:24:37;18.70;99.90
34837;DHT22;21053;50.848;4.652;2023-05-07T07:27:03;18.80;99.90
34837;DHT22;21053;50.848;4.652;2023-05-07T07:29:31;19.00;99.90
34837;DHT22;21053;50.848;4.652;2023-05-07T07:31:57;18.90;99.90
34837;DHT22;21053;50.848;4.652;2023-05-07T07:34:24;18.90;99.90
34837;DHT22;21053;50.848;4.652;2023-05-07T07:36:51;18.90;99.90
34837;DHT22;21053;50.848;4.652;2023-05-07T07:39:17;18.90;99.90
34837;DHT22;21053;50.848;4.652;2023-05-07T07:41:46;18.80;99.90
34837;DHT22;21053;50.848;4.652;2023-05-07T07:44:13;18.70;99.90
34837;DHT22;21053;50.848;4.652;2023-05-07T07:46:40;18.80;99.90
34837;DHT22;21053;50.848;4.652;2023-05-07T07:49:08;18.70;99.90
34837;DHT22;21053;50.848;4.652;2023-05-07T07:51:37;18.70;99.90
34837;DHT22;21053;50.848;4.652;2023-05-07T07:54:04;18.70;99.90
34837;DHT22;21053;50.848;4.652;2023-05-07T07:56:31;18.70;99.90
34837;DHT22;21053;50.848;4.652;2023-05-07T07:58:59;18.80;99.90
34837;DHT22;21053;50.848;4.652;2023-05-07T08:01:25;18.80;99.90
34837;DHT22;21053;50.848;4.652;2023-05-07T08:03:52;18.90;99.90
34837;DHT22;21053;50.848;4.652;2023-05-07T08:06:21;18.90;99.90
34837;DHT22;21053;50.848;4.652;2023-05-07T08:08:48;18.80;99.90
34837;DHT22;21053;50.848;4.652;2023-05-07T08:11:16;18.90;99.90
34837;DHT22;21053;50.848;4.652;2023-05-07T08:13:45;19.00;99.90
34837;DHT22;21053;50.848;4.652;2023-05-07T08:16:13;18.80;99.90
34837;DHT22;21053;50.848;4.652;2023-05-07T08:18:39;18.80;99.90
34837;DHT22;21053;50.848;4.652;2023-05-07T08:21:06;18.90;99.90
34837;DHT22;21053;50.848;4.652;2023-05-07T08:23:32;18.90;99.90
34837;DHT22;21053;50.848;4.652;2023-05-07T08:26:02;18.70;99.90
34837;DHT22;21053;50.848;4.652;2023-05-07T08:28:28;18.90;99.90
34837;DHT22;21053;50.848;4.652;2023-05-07T08:30:54;18.80;99.90
34837;DHT22;21053;50.848;4.652;2023-05-07T08:33:28;18.80;99.90
34837;DHT22;21053;50.848;4.652;2023-05-07T08:35:53;18.70;99.90
34837;DHT22;21053;50.848;4.652;2023-05-07T08:38:19;18.80;99.90
34837;DHT22;21053;50.848;4.652;2023-05-07T08:40:47;18.90;99.90
34837;DHT22;21053;50.848;4.652;2023-05-07T08:43:19;18.90;99.90
34837;DHT22;21053;50.848;4.652;2023-05-07T08:45:49;18.90;99.90
34837;DHT22;21053;50.848;4.652;2023-05-07T08:48:17;18.90;99.90
34837;DHT22;21053;50.848;4.652;2023-05-07T08:50:44;18.90;99.90
34837;DHT22;21053;50.848;4.652;2023-05-07T08:53:12;18.90;99.90
34837;DHT22;21053;50.848;4.652;2023-05-07T08:55:39;18.80;99.90
34837;DHT22;21053;50.848;4.652;2023-05-07T08:58:05;18.80;99.90
34837;DHT22;21053;50.848;4.652;2023-05-07T09:00:32;18.80;99.90
34837;DHT22;21053;50.848;4.652;2023-05-07T09:03:00;18.90;99.90
34837;DHT22;21053;50.848;4.652;2023-05-07T09:05:26;18.90;99.90
34837;DHT22;21053;50.848;4.652;2023-05-07T09:07:52;18.90;99.90
34837;DHT22;21053;50.848;4.652;2023-05-07T09:10:18;19.00;99.90
34837;DHT22;21053;50.848;4.652;2023-05-07T09:12:46;18.90;99.90
34837;DHT22;21053;50.848;4.652;2023-05-07T09:15:13;19.00;99.90
34837;DHT22;21053;50.848;4.652;2023-05-07T09:17:40;19.00;99.90
34837;DHT22;21053;50.848;4.652;2023-05-07T09:20:08;19.20;99.90
34837;DHT22;21053;50.848;4.652;2023-05-07T09:22:36;19.30;99.90
34837;DHT22;21053;50.848;4.652;2023-05-07T09:25:02;19.40;99.90
34837;DHT22;21053;50.848;4.652;2023-05-07T09:27:28;19.30;99.90
34837;DHT22;21053;50.848;4.652;2023-05-07T09:29:54;19.40;99.90
34837;DHT22;21053;50.848;4.652;2023-05-07T09:32:20;19.30;99.90
34837;DHT22;21053;50.848;4.652;2023-05-07T09:34:47;19.00;99.90
34837;DHT22;21053;50.848;4.652;2023-05-07T09:37:14;19.00;99.90
34837;DHT22;21053;50.848;4.652;2023-05-07T09:39:44;19.10;99.90
34837;DHT22;21053;50.848;4.652;2023-05-07T09:42:11;19.20;99.90
34837;DHT22;21053;50.848;4.652;2023-05-07T09:44:38;19.30;99.90
34837;DHT22;21053;50.848;4.652;2023-05-07T09:47:05;19.30;99.90
34837;DHT22;21053;50.848;4.652;2023-05-07T09:49:34;19.40;99.90
34837;DHT22;21053;50.848;4.652;2023-05-07T09:52:05;19.50;99.90
34837;DHT22;21053;50.848;4.652;2023-05-07T09:54:34;19.60;99.90
34837;DHT22;21053;50.848;4.652;2023-05-07T09:57:02;19.60;99.90
34837;DHT22;21053;50.848;4.652;2023-05-07T09:59:31;19.70;99.90
34837;DHT22;21053;50.848;4.652;2023-05-07T10:01:58;19.90;99.90
34837;DHT22;21053;50.848;4.652;2023-05-07T10:04:26;19.90;99.90
34837;DHT22;21053;50.848;4.652;2023-05-07T10:06:52;19.70;99.90
34837;DHT22;21053;50.848;4.652;2023-05-07T10:09:20;19.90;99.90
34837;DHT22;21053;50.848;4.652;2023-05-07T10:11:48;19.90;99.90
34837;DHT22;21053;50.848;4.652;2023-05-07T10:14:15;20.00;99.90
34837;DHT22;21053;50.848;4.652;2023-05-07T10:16:43;20.00;99.90
34837;DHT22;21053;50.848;4.652;2023-05-07T10:19:10;20.00;99.90
34837;DHT22;21053;50.848;4.652;2023-05-07T10:21:37;20.00;99.90
34837;DHT22;21053;50.848;4.652;2023-05-07T10:24:08;19.90;99.90
34837;DHT22;21053;50.848;4.652;2023-05-07T10:26:50;19.90;99.90
34837;DHT22;21053;50.848;4.652;2023-05-07T10:32:45;19.90;99.90
34837;DHT22;21053;50.848;4.652;2023-05-07T10:35:17;19.90;99.90
34837;DHT22;21053;50.848;4.652;2023-05-07T10:37:45;19.80;99.90
34837;DHT22;21053;50.848;4.652;2023-05-07T10:40:12;19.80;99.90
34837;DHT22;21053;50.848;4.652;2023-05-07T10:42:39;19.80;99.90
34837;DHT22;21053;50.848;4.652;2023-05-07T10:45:18;19.80;99.90
34837;DHT22;21053;50.848;4.652;2023-05-07T10:48:36;19.80;99.90
34837;DHT22;21053;50.848;4.652;2023-05-07T10:51:19;19.90;99.90
34837;DHT22;21053;50.848;4.652;2023-05-07T10:56:35;20.00;99.90
34837;DHT22;21053;50.848;4.652;2023-05-07T11:02:00;19.90;99.90
34837;DHT22;21053;50.848;4.652;2023-05-07T11:04:30;20.10;99.90
34837;DHT22;21053;50.848;4.652;2023-05-07T11:09:59;20.40;99.90
34837;DHT22;21053;50.848;4.652;2023-05-07T11:15:08;20.50;99.90
34837;DHT22;21053;50.848;4.652;2023-05-07T11:17:51;20.60;99.90
34837;DHT22;21053;50.848;4.652;2023-05-07T11:20:17;20.50;99.90
34837;DHT22;21053;50.848;4.652;2023-05-07T11:22:44;20.60;99.90
34837;DHT22;21053;50.848;4.652;2023-05-07T11:25:10;20.60;99.90
34837;DHT22;21053;50.848;4.652;2023-05-07T11:27:42;20.50;99.90
34837;DHT22;21053;50.848;4.652;2023-05-07T11:30:09;20.60;99.90
34837;DHT22;21053;50.848;4.652;2023-05-07T11:32:36;20.40;99.90
34837;DHT22;21053;50.848;4.652;2023-05-07T11:35:02;20.40;99.90
34837;DHT22;21053;50.848;4.652;2023-05-07T11:37:28;20.10;99.90
34837;DHT22;21053;50.848;4.652;2023-05-07T11:40:08;20.00;99.90
34837;DHT22;21053;50.848;4.652;2023-05-07T11:42:38;20.30;99.90
34837;DHT22;21053;50.848;4.652;2023-05-07T11:45:05;20.50;99.90
34837;DHT22;21053;50.848;4.652;2023-05-07T11:47:33;20.50;99.90
34837;DHT22;21053;50.848;4.652;2023-05-07T11:50:06;20.70;99.90
34837;DHT22;21053;50.848;4.652;2023-05-07T11:52:38;20.90;99.90
34837;DHT22;21053;50.848;4.652;2023-05-07T11:55:04;21.00;99.90
34837;DHT22;21053;50.848;4.652;2023-05-07T11:57:33;21.10;99.90
34837;DHT22;21053;50.848;4.652;2023-05-07T12:00:00;21.20;99.90
34837;DHT22;21053;50.848;4.652;2023-05-07T12:02:27;21.20;99.90
34837;DHT22;21053;50.848;4.652;2023-05-07T12:04:55;21.20;99.90
34837;DHT22;21053;50.848;4.652;2023-05-07T12:07:24;21.40;99.90
34837;DHT22;21053;50.848;4.652;2023-05-07T12:09:52;21.40;99.90
34837;DHT22;21053;50.848;4.652;2023-05-07T12:12:20;21.50;99.90
34837;DHT22;21053;50.848;4.652;2023-05-07T12:14:48;21.50;99.90
34837;DHT22;21053;50.848;4.652;2023-05-07T12:17:15;21.30;99.90
34837;DHT22;21053;50.848;4.652;2023-05-07T12:19:44;21.40;99.90
34837;DHT22;21053;50.848;4.652;2023-05-07T12:22:10;21.50;99.90
34837;DHT22;21053;50.848;4.652;2023-05-07T12:24:56;21.60;99.90
34837;DHT22;21053;50.848;4.652;2023-05-07T12:27:22;21.50;99.90
34837;DHT22;21053;50.848;4.652;2023-05-07T12:29:51;21.50;99.90
34837;DHT22;21053;50.848;4.652;2023-05-07T12:32:19;21.30;99.90
34837;DHT22;21053;50.848;4.652;2023-05-07T12:34:46;21.40;99.90
34837;DHT22;21053;50.848;4.652;2023-05-07T12:37:14;21.40;99.90
34837;DHT22;21053;50.848;4.652;2023-05-07T12:40:12;21.50;99.90
34837;DHT22;21053;50.848;4.652;2023-05-07T12:42:39;21.40;99.90
34837;DHT22;21053;50.848;4.652;2023-05-07T12:45:15;21.30;99.90
34837;DHT22;21053;50.848;4.652;2023-05-07T12:47:45;21.20;99.90
34837;DHT22;21053;50.848;4.652;2023-05-07T12:50:11;21.30;99.90
34837;DHT22;21053;50.848;4.652;2023-05-07T12:52:37;21.30;99.90
34837;DHT22;21053;50.848;4.652;2023-05-07T12:55:07;21.50;99.90
34837;DHT22;21053;50.848;4.652;2023-05-07T12:57:43;21.70;99.90
34837;DHT22;21053;50.848;4.652;2023-05-07T13:00:09;21.80;99.90
34837;DHT22;21053;50.848;4.652;2023-05-07T13:02:41;21.80;99.90
34837;DHT22;21053;50.848;4.652;2023-05-07T13:05:08;21.70;99.90
34837;DHT22;21053;50.848;4.652;2023-05-07T13:07:37;21.90;99.90
34837;DHT22;21053;50.848;4.652;2023-05-07T13:10:03;21.80;99.90
34837;DHT22;21053;50.848;4.652;2023-05-07T13:12:29;21.70;99.90
34837;DHT22;21053;50.848;4.652;2023-05-07T13:14:57;21.80;99.90
34837;DHT22;21053;50.848;4.652;2023-05-07T13:17:26;21.80;99.90
34837;DHT22;21053;50.848;4.652;2023-05-07T13:19:53;21.90;99.90
34837;DHT22;21053;50.848;4.652;2023-05-07T13:22:18;21.80;99.90
34837;DHT22;21053;50.848;4.652;2023-05-07T13:24:47;21.80;99.90
34837;DHT22;21053;50.848;4.652;2023-05-07T13:27:14;21.60;99.90
34837;DHT22;21053;50.848;4.652;2023-05-07T13:29:44;21.40;99.90
34837;DHT22;21053;50.848;4.652;2023-05-07T13:32:09;21.40;99.90
34837;DHT22;21053;50.848;4.652;2023-05-07T13:34:38;21.50;99.90
34837;DHT22;21053;50.848;4.652;2023-05-07T13:37:07;21.50;99.90
34837;DHT22;21053;50.848;4.652;2023-05-07T13:39:39;21.50;99.90
34837;DHT22;21053;50.848;4.652;2023-05-07T13:42:09;21.40;99.90
34837;DHT22;21053;50.848;4.652;2023-05-07T13:44:35;21.20;99.90
34837;DHT22;21053;50.848;4.652;2023-05-07T13:47:02;21.10;99.90
34837;DHT22;21053;50.848;4.652;2023-05-07T13:49:28;21.10;99.90
34837;DHT22;21053;50.848;4.652;2023-05-07T13:51:55;21.20;99.90
34837;DHT22;21053;50.848;4.652;2023-05-07T13:54:21;21.20;99.90
34837;DHT22;21053;50.848;4.652;2023-05-07T13:56:52;21.20;99.90
34837;DHT22;21053;50.848;4.652;2023-05-07T13:59:21;21.30;99.90
34837;DHT22;21053;50.848;4.652;2023-05-07T14:01:48;21.20;99.90
34837;DHT22;21053;50.848;4.652;2023-05-07T14:04:15;21.30;99.90
34837;DHT22;21053;50.848;4.652;2023-05-07T14:06:40;21.30;99.90
34837;DHT22;21053;50.848;4.652;2023-05-07T14:09:06;21.30;99.90
34837;DHT22;21053;50.848;4.652;2023-05-07T14:11:34;21.30;99.90
34837;DHT22;21053;50.848;4.652;2023-05-07T14:14:02;21.30;99.90
34837;DHT22;21053;50.848;4.652;2023-05-07T14:16:29;21.30;99.90
34837;DHT22;21053;50.848;4.652;2023-05-07T14:18:55;21.40;99.90
34837;DHT22;21053;50.848;4.652;2023-05-07T14:21:22;21.30;99.90
34837;DHT22;21053;50.848;4.652;2023-05-07T14:23:49;21.40;99.90
34837;DHT22;21053;50.848;4.652;2023-05-07T14:26:18;21.40;99.90
34837;DHT22;21053;50.848;4.652;2023-05-07T14:28:47;21.30;99.90
34837;DHT22;21053;50.848;4.652;2023-05-07T14:31:14;21.30;99.90
34837;DHT22;21053;50.848;4.652;2023-05-07T14:33:40;21.30;99.90
34837;DHT22;21053;50.848;4.652;2023-05-07T14:36:07;21.30;99.90
34837;DHT22;21053;50.848;4.652;2023-05-07T14:38:33;21.30;99.90
34837;DHT22;21053;50.848;4.652;2023-05-07T14:41:00;21.30;99.90
34837;DHT22;21053;50.848;4.652;2023-05-07T14:43:26;21.20;99.90
34837;DHT22;21053;50.848;4.652;2023-05-07T14:45:53;21.20;99.90
34837;DHT22;21053;50.848;4.652;2023-05-07T14:48:19;21.20;99.90
34837;DHT22;21053;50.848;4.652;2023-05-07T14:50:47;21.10;99.90
34837;DHT22;21053;50.848;4.652;2023-05-07T14:53:15;21.10;99.90
34837;DHT22;21053;50.848;4.652;2023-05-07T14:55:40;21.00;99.90
34837;DHT22;21053;50.848;4.652;2023-05-07T14:58:07;20.90;99.90
34837;DHT22;21053;50.848;4.652;2023-05-07T15:00:35;20.80;99.90
34837;DHT22;21053;50.848;4.652;2023-05-07T15:03:07;20.70;99.90
34837;DHT22;21053;50.848;4.652;2023-05-07T15:05:33;20.60;99.90
34837;DHT22;21053;50.848;4.652;2023-05-07T15:08:01;20.60;99.90
34837;DHT22;21053;50.848;4.652;2023-05-07T15:12:54;20.80;99.90
34837;DHT22;21053;50.848;4.652;2023-05-07T15:15:20;20.80;99.90
34837;DHT22;21053;50.848;4.652;2023-05-07T15:17:46;20.80;99.90
34837;DHT22;21053;50.848;4.652;2023-05-07T15:20:13;20.80;99.90
34837;DHT22;21053;50.848;4.652;2023-05-07T15:22:40;20.80;99.90
34837;DHT22;21053;50.848;4.652;2023-05-07T15:25:07;20.80;99.90
34837;DHT22;21053;50.848;4.652;2023-05-07T15:27:33;20.80;99.90
34837;DHT22;21053;50.848;4.652;2023-05-07T15:30:02;20.90;99.90
34837;DHT22;21053;50.848;4.652;2023-05-07T15:32:29;21.00;99.90
34837;DHT22;21053;50.848;4.652;2023-05-07T15:35:03;20.80;99.90
34837;DHT22;21053;50.848;4.652;2023-05-07T15:37:30;20.90;99.90
34837;DHT22;21053;50.848;4.652;2023-05-07T15:39:57;21.00;99.90
34837;DHT22;21053;50.848;4.652;2023-05-07T15:42:24;21.00;99.90
34837;DHT22;21053;50.848;4.652;2023-05-07T15:44:51;21.10;99.90
34837;DHT22;21053;50.848;4.652;2023-05-07T15:47:18;21.10;99.90
34837;DHT22;21053;50.848;4.652;2023-05-07T15:49:44;21.20;99.90
34837;DHT22;21053;50.848;4.652;2023-05-07T15:52:11;21.20;99.90